Taylor, TX (76574)

6:36 AM CDT on July 04, 2015 (GMT -0500)
Central Taylor | | Change Station
CLOSE
Current Station
Personal Weather Station
Location: Taylor, TX
Elevation: 582 ft
Nearby Weather Stations

Elev 582 ft 30.57 °N, 97.42 °W | Updated 1 second ago

Mostly Cloudy
Mostly Cloudy
74.5 °F
Feels Like 73 °F
N
0.0
Wind Variable Wind from South
Gusts 0.0 mph

Today
High -- | Low -- °F
--% Chance of Precip.
Yesterday
High -- | Low -- °F
Precip. -- in
6:31 AM 8:36 PM
Waning Gibbous, 93% visible
Pressure 30.00 in
Visibility 9.0 miles
Clouds Few 1100 ft
Overcast 2300 ft
Heat Index 73 °F
Dew Point 72 °F
Humidity 92%
Rainfall 0.00 in
Snow Depth Not available.
UV 0 out of 12
Pollen 2.40 out of 12
Air Quality Not available.
Flu Activity Not available.
METAR KEDC 041115Z AUTO 00000KT 9SM FEW011 OVC023 24/24 A3000 RMK AO2

More Conditions Fewer Conditions

Pressure 30.00 in
Visibility 9.0 miles
Clouds Few 1100 ft
Overcast 2300 ft
Heat Index 73 °F
Dew Point 72 °F
Humidity 92%
Rainfall 0.00 in
Snow Depth Not available.
UV 0 out of 12
Pollen 2.40 out of 12
Air Quality Not available.
Flu Activity Not available.
METAR KEDC 041115Z AUTO 00000KT 9SM FEW011 OVC023 24/24 A3000 RMK AO2

More Conditions Fewer Conditions

10-Day Weather Forecast

×

Almanac

Astronomy

Jul. 04, 2015 Rise Set
Actual Time
Civil Twilight
Nautical Twilight
Astronomical Twilight
Moon
Length of Visible Light
Length of Day
Tomorrow will be .
, % of the Moon is Illuminated

Today's Extremes

State Highs State Lows

Community

WunderPhotos

Upload Photos

1,834,939 photos uploaded!

WunderBlogs® & News

Nearby

Air Quality

  Air Quality AQ Index Pollutant
Not available.

Snow Depth

Station Depth Elevation

Earthquake Activity

City Distance Mag. Time & Date
Minimum magnitude displayed is 2.5.

Coastal Water Temperatures

Place Temperature

Stations

Nearby Weather Stations

Station Location Temp. Windchill Dew Point Humidity Wind Precip. Elev Updated Type